East Blacksea — T2ZH3 — position and weather

sailwx.info

Track history (hours):
 
Tides and Currents Weather Stations Pressure Air Temp Water Temp Dewpoint Dewpoint Depression Visibility Wind Speed Wind Dir Waves Ship Positions

East Blacksea

Last reported at 2015-Mar-07 16:31 UTC. Time now 2015-Mar-27 10:18 UTC.
Position N 44°08' E 033°56'.
Warning: this ship's position is 19 days out of date.

Length 69 m; draft 2.7 m.

Type: Ship. MMSI: 572341210.

Date/timePositionNaut miles runAvg speedWind from/ knotsBaromVisibWave heightAir tempDewpointWater temp
2015-Mar-07 16:31N 44°08' E 033°56'9 8.6
2015-Mar-07 15:27N 44°09' E 034°08'8 8.5
2015-Mar-07 14:33N 44°10' E 034°19'8 7.9
2015-Mar-07 13:33N 44°11' E 034°29'8 7.6
2015-Mar-07 12:33N 44°12' E 034°40'8 7.6
2015-Mar-07 11:33N 44°14' E 034°50'10 8.0
2015-Mar-07 10:19N 44°16' E 035°04'124 4.8
2015-Mar-06 08:30N 44°39' E 037°55'0 0.0
2015-Mar-06 07:33N 44°39' E 037°55'0 0.1
2015-Mar-06 06:33N 44°39' E 037°55'0 0.0
2015-Mar-06 05:28N 44°39' E 037°55'0 0.0
2015-Mar-06 04:31N 44°39' E 037°55'0 0.0
2015-Mar-06 03:31N 44°39' E 037°55'0 0.0
2015-Mar-06 02:31N 44°39' E 037°55'0 0.0
2015-Mar-06 01:31N 44°39' E 037°55'0 0.0
2015-Mar-06 00:31N 44°39' E 037°55'0 0.0
2015-Mar-05 23:28N 44°39' E 037°55'0 0.0
2015-Mar-05 22:28N 44°39' E 037°55'0 0.0
2015-Mar-05 21:31N 44°39' E 037°55'0 0.0
2015-Mar-05 20:31N 44°39' E 037°55'0 0.0
2015-Mar-05 19:28N 44°39' E 037°55'0 0.0
2015-Mar-05 18:31N 44°39' E 037°55'0 0.0
2015-Mar-05 17:31N 44°39' E 037°55'0 0.0
2015-Mar-05 16:31N 44°39' E 037°55'0 0.0
2015-Mar-05 15:31N 44°39' E 037°55'0 0.0
2015-Mar-05 14:31N 44°39' E 037°55'0 0.0
2015-Mar-05 13:31N 44°39' E 037°55'0 0.0
2015-Mar-05 12:31N 44°39' E 037°55'0 0.0
2015-Mar-05 11:28N 44°39' E 037°55'0 0.0
2015-Mar-05 10:28N 44°39' E 037°55'0 0.0
2015-Mar-05 09:31N 44°39' E 037°55'0 0.0
2015-Mar-05 08:31N 44°39' E 037°55'0 0.0
2015-Mar-05 07:32N 44°39' E 037°55'0 0.0
2015-Mar-05 06:32N 44°39' E 037°55'0 0.0
2015-Mar-05 05:32N 44°39' E 037°55'0 0.0
2015-Mar-05 04:32N 44°39' E 037°55'0 0.1
2015-Mar-05 03:33N 44°39' E 037°55'6 5.8
2015-Mar-05 02:34N 44°43' E 037°48'1 1.4
2015-Mar-05 01:32N 44°44' E 037°47'0 0.0
2015-Mar-05 00:29N 44°44' E 037°47'0 0.0
2015-Mar-04 23:32N 44°44' E 037°47'0 0.0
2015-Mar-04 22:32N 44°44' E 037°47'0 0.0
2015-Mar-04 21:32N 44°44' E 037°47'0 0.0
2015-Mar-04 20:32N 44°44' E 037°47'0 0.0
2015-Mar-04 19:32N 44°44' E 037°47'0 0.0
2015-Mar-04 18:32N 44°44' E 037°47'0 0.0
2015-Mar-04 17:32N 44°44' E 037°47'0 0.0
2015-Mar-04 16:32N 44°44' E 037°47'0 0.0
2015-Mar-04 15:32N 44°44' E 037°47'0 0.0
2015-Mar-04 14:32N 44°44' E 037°47'0 0.0
2015-Mar-04 13:32N 44°44' E 037°47'0 0.0
2015-Mar-04 12:32N 44°44' E 037°47'0 0.0
2015-Mar-04 11:32N 44°44' E 037°47'0 0.0
2015-Mar-04 10:32N 44°44' E 037°47'0 0.0
2015-Mar-04 09:32N 44°44' E 037°47'0 0.0
2015-Mar-04 08:32N 44°44' E 037°47'0 0.0
2015-Mar-04 07:32N 44°44' E 037°47'0 0.0
2015-Mar-04 06:29N 44°44' E 037°47'0 0.0
2015-Mar-04 05:32N 44°44' E 037°47'0 0.0
2015-Mar-04 04:32N 44°44' E 037°47'0 0.0
2015-Mar-04 03:32N 44°44' E 037°47'0 0.0
2015-Mar-04 02:32N 44°44' E 037°47'0 0.0
2015-Mar-04 01:32N 44°44' E 037°47'0 0.0
2015-Mar-04 00:32N 44°44' E 037°47'3 3.0
2015-Mar-03 23:33N 44°41' E 037°49'4 4.3
2015-Mar-03 22:34N 44°37' E 037°52'6 6.0
2015-Mar-03 21:34N 44°32' E 037°52'2 1.6
2015-Mar-03 20:34N 44°31' E 037°49'0 0.4
2015-Mar-03 19:33N 44°31' E 037°50'0 0.4
2015-Mar-03 18:32N 44°30' E 037°50'4 4.5
2015-Mar-03 17:33N 44°34' E 037°46'8 7.9
2015-Mar-03 16:33N 44°33' E 037°35'9 7.6
2015-Mar-03 15:24N 44°32' E 037°23'105 7.4
2015-Mar-03 01:15N 44°20' E 034°57'5 7.5
2015-Mar-03 00:33N 44°19' E 034°50'8 7.7
2015-Mar-02 23:33N 44°18' E 034°39'8 7.8
2015-Mar-02 22:33N 44°17' E 034°29'9 7.6
2015-Mar-02 21:26N 44°16' E 034°17'6 7.5
2015-Mar-02 20:34N 44°15' E 034°08'  
Track history (hours):
 
Tides and Currents Weather Stations Pressure Air Temp Water Temp Dewpoint Dewpoint Depression Visibility Wind Speed Wind Dir Waves Ship Positions

East Blacksea

Last reported at 2015-Mar-07 16:31 UTC. Time now 2015-Mar-27 10:18 UTC.
Position N 44°08' E 033°56'.
Warning: this ship's position is 19 days out of date.

Length 69 m; draft 2.7 m.

Type: Ship. MMSI: 572341210.

Date/timePositionNaut miles runAvg speedWind from/ knotsBaromVisibWave heightAir tempDewpointWater temp
2015-Mar-07 16:31N 44°08' E 033°56'9 8.6
2015-Mar-07 15:27N 44°09' E 034°08'8 8.5
2015-Mar-07 14:33N 44°10' E 034°19'8 7.9
2015-Mar-07 13:33N 44°11' E 034°29'8 7.6
2015-Mar-07 12:33N 44°12' E 034°40'8 7.6
2015-Mar-07 11:33N 44°14' E 034°50'10 8.0
2015-Mar-07 10:19N 44°16' E 035°04'124 4.8
2015-Mar-06 08:30N 44°39' E 037°55'0 0.0
2015-Mar-06 07:33N 44°39' E 037°55'0 0.1
2015-Mar-06 06:33N 44°39' E 037°55'0 0.0
2015-Mar-06 05:28N 44°39' E 037°55'0 0.0
2015-Mar-06 04:31N 44°39' E 037°55'0 0.0
2015-Mar-06 03:31N 44°39' E 037°55'0 0.0
2015-Mar-06 02:31N 44°39' E 037°55'0 0.0
2015-Mar-06 01:31N 44°39' E 037°55'0 0.0
2015-Mar-06 00:31N 44°39' E 037°55'0 0.0
2015-Mar-05 23:28N 44°39' E 037°55'0 0.0
2015-Mar-05 22:28N 44°39' E 037°55'0 0.0
2015-Mar-05 21:31N 44°39' E 037°55'0 0.0
2015-Mar-05 20:31N 44°39' E 037°55'0 0.0
2015-Mar-05 19:28N 44°39' E 037°55'0 0.0
2015-Mar-05 18:31N 44°39' E 037°55'0 0.0
2015-Mar-05 17:31N 44°39' E 037°55'0 0.0
2015-Mar-05 16:31N 44°39' E 037°55'0 0.0
2015-Mar-05 15:31N 44°39' E 037°55'0 0.0
2015-Mar-05 14:31N 44°39' E 037°55'0 0.0
2015-Mar-05 13:31N 44°39' E 037°55'0 0.0
2015-Mar-05 12:31N 44°39' E 037°55'0 0.0
2015-Mar-05 11:28N 44°39' E 037°55'0 0.0
2015-Mar-05 10:28N 44°39' E 037°55'0 0.0
2015-Mar-05 09:31N 44°39' E 037°55'0 0.0
2015-Mar-05 08:31N 44°39' E 037°55'0 0.0
2015-Mar-05 07:32N 44°39' E 037°55'0 0.0
2015-Mar-05 06:32N 44°39' E 037°55'0 0.0
2015-Mar-05 05:32N 44°39' E 037°55'0 0.0
2015-Mar-05 04:32N 44°39' E 037°55'0 0.1
2015-Mar-05 03:33N 44°39' E 037°55'6 5.8
2015-Mar-05 02:34N 44°43' E 037°48'1 1.4
2015-Mar-05 01:32N 44°44' E 037°47'0 0.0
2015-Mar-05 00:29N 44°44' E 037°47'0 0.0
2015-Mar-04 23:32N 44°44' E 037°47'0 0.0
2015-Mar-04 22:32N 44°44' E 037°47'0 0.0
2015-Mar-04 21:32N 44°44' E 037°47'0 0.0
2015-Mar-04 20:32N 44°44' E 037°47'0 0.0
2015-Mar-04 19:32N 44°44' E 037°47'0 0.0
2015-Mar-04 18:32N 44°44' E 037°47'0 0.0
2015-Mar-04 17:32N 44°44' E 037°47'0 0.0
2015-Mar-04 16:32N 44°44' E 037°47'0 0.0
2015-Mar-04 15:32N 44°44' E 037°47'0 0.0
2015-Mar-04 14:32N 44°44' E 037°47'0 0.0
2015-Mar-04 13:32N 44°44' E 037°47'0 0.0
2015-Mar-04 12:32N 44°44' E 037°47'0 0.0
2015-Mar-04 11:32N 44°44' E 037°47'0 0.0
2015-Mar-04 10:32N 44°44' E 037°47'0 0.0
2015-Mar-04 09:32N 44°44' E 037°47'0 0.0
2015-Mar-04 08:32N 44°44' E 037°47'0 0.0
2015-Mar-04 07:32N 44°44' E 037°47'0 0.0
2015-Mar-04 06:29N 44°44' E 037°47'0 0.0
2015-Mar-04 05:32N 44°44' E 037°47'0 0.0
2015-Mar-04 04:32N 44°44' E 037°47'0 0.0
2015-Mar-04 03:32N 44°44' E 037°47'0 0.0
2015-Mar-04 02:32N 44°44' E 037°47'0 0.0
2015-Mar-04 01:32N 44°44' E 037°47'0 0.0
2015-Mar-04 00:32N 44°44' E 037°47'3 3.0
2015-Mar-03 23:33N 44°41' E 037°49'4 4.3
2015-Mar-03 22:34N 44°37' E 037°52'6 6.0
2015-Mar-03 21:34N 44°32' E 037°52'2 1.6
2015-Mar-03 20:34N 44°31' E 037°49'0 0.4
2015-Mar-03 19:33N 44°31' E 037°50'0 0.4
2015-Mar-03 18:32N 44°30' E 037°50'4 4.5
2015-Mar-03 17:33N 44°34' E 037°46'8 7.9
2015-Mar-03 16:33N 44°33' E 037°35'9 7.6
2015-Mar-03 15:24N 44°32' E 037°23'105 7.4
2015-Mar-03 01:15N 44°20' E 034°57'5 7.5
2015-Mar-03 00:33N 44°19' E 034°50'8 7.7
2015-Mar-02 23:33N 44°18' E 034°39'8 7.8
2015-Mar-02 22:33N 44°17' E 034°29'9 7.6
2015-Mar-02 21:26N 44°16' E 034°17'6 7.5
2015-Mar-02 20:34N 44°15' E 034°08'  

Dump ship's entire track history